createdAt,value
2023-06-16T00:00:39.414Z,2.38
2023-06-16T00:03:06.728Z,2.20
2023-06-16T00:05:36.162Z,2.50
2023-06-16T00:08:04.815Z,2.00
2023-06-16T00:10:31.960Z,2.58
2023-06-16T00:12:58.925Z,2.47
2023-06-16T00:15:25.613Z,2.08
2023-06-16T00:17:52.456Z,2.17
2023-06-16T00:20:22.934Z,2.20
2023-06-16T00:22:50.357Z,2.50
2023-06-16T00:25:20.315Z,2.08
2023-06-16T00:27:47.601Z,2.25
2023-06-16T00:30:14.669Z,2.47
2023-06-16T00:32:41.601Z,2.55
2023-06-16T00:35:08.708Z,2.42
2023-06-16T00:37:35.685Z,2.55
2023-06-16T00:40:02.847Z,2.15
2023-06-16T00:42:29.601Z,2.28
2023-06-16T00:44:56.545Z,2.17
2023-06-16T00:47:23.347Z,1.90
2023-06-16T00:49:50.047Z,2.20
2023-06-16T00:52:17.059Z,2.13
2023-06-16T00:54:43.748Z,2.63
2023-06-16T00:57:10.397Z,2.33
2023-06-16T00:59:37.356Z,2.40
2023-06-16T01:02:04.742Z,2.30
2023-06-16T01:04:33.051Z,2.60
2023-06-16T01:07:22.929Z,2.10
2023-06-16T01:09:59.133Z,2.20
2023-06-16T01:12:44.776Z,2.00
2023-06-16T01:15:14.766Z,2.10
2023-06-16T01:17:45.883Z,2.08
2023-06-16T01:20:31.109Z,2.00
2023-06-16T01:23:02.403Z,2.10
2023-06-16T01:25:30.857Z,1.98
2023-06-16T01:27:58.531Z,2.50
2023-06-16T01:30:27.359Z,2.08
2023-06-16T01:32:54.909Z,2.17
2023-06-16T01:35:22.935Z,2.15
2023-06-16T01:37:52.129Z,2.08
2023-06-16T01:40:20.167Z,1.80
2023-06-16T01:42:50.668Z,2.33
2023-06-16T01:45:17.738Z,2.17
2023-06-16T01:47:45.293Z,2.10
2023-06-16T01:50:12.650Z,2.38
2023-06-16T01:52:39.738Z,2.30
2023-06-16T01:55:06.570Z,2.08
2023-06-16T01:57:33.382Z,2.50
2023-06-16T02:00:22.386Z,2.08
2023-06-16T02:03:01.331Z,2.30
2023-06-16T02:05:30.612Z,2.38
2023-06-16T02:07:59.531Z,2.55
2023-06-16T02:10:26.731Z,2.00
2023-06-16T02:12:53.533Z,2.05
2023-06-16T02:15:22.590Z,2.47
2023-06-16T02:17:50.959Z,2.00
2023-06-16T02:20:18.093Z,1.92
2023-06-16T02:22:45.248Z,2.10
2023-06-16T02:25:12.034Z,2.10
2023-06-16T02:27:38.731Z,2.03
2023-06-16T02:30:06.053Z,1.90
2023-06-16T02:32:33.422Z,1.90
2023-06-16T02:35:00.229Z,2.08
2023-06-16T02:37:28.584Z,1.98
2023-06-16T02:39:55.694Z,2.10
2023-06-16T02:42:22.395Z,1.90
2023-06-16T02:44:49.191Z,2.58
2023-06-16T02:47:15.830Z,2.00
2023-06-16T02:49:44.160Z,2.15
2023-06-16T02:52:12.695Z,2.33
2023-06-16T02:54:42.650Z,2.00
2023-06-16T02:57:09.580Z,2.10
2023-06-16T02:59:36.604Z,2.17
2023-06-16T03:02:03.279Z,2.28
2023-06-16T03:04:30.063Z,2.30
2023-06-16T03:07:00.279Z,1.92
2023-06-16T03:09:27.827Z,2.03
2023-06-16T03:11:55.617Z,2.25
2023-06-16T03:14:22.814Z,1.90
2023-06-16T03:16:50.003Z,1.80
2023-06-16T03:19:17.367Z,2.13
2023-06-16T03:21:45.966Z,2.30
2023-06-16T03:24:14.555Z,2.20
2023-06-16T03:26:41.582Z,2.10
2023-06-16T03:29:08.850Z,2.33
2023-06-16T03:31:36.230Z,2.47
2023-06-16T03:34:14.771Z,2.10
2023-06-16T03:36:49.821Z,2.30
2023-06-16T03:39:16.617Z,2.30
2023-06-16T03:41:43.331Z,2.53
2023-06-16T03:44:10.008Z,2.25
2023-06-16T03:46:36.749Z,2.20
2023-06-16T03:49:03.607Z,2.45
2023-06-16T03:51:31.246Z,2.40
2023-06-16T03:53:59.026Z,2.22
2023-06-16T03:56:25.965Z,2.22
2023-06-16T03:58:52.722Z,2.13
2023-06-16T04:01:22.569Z,2.00
2023-06-16T04:03:51.129Z,2.70
2023-06-16T04:06:18.089Z,2.15
2023-06-16T04:08:50.630Z,2.50
2023-06-16T04:11:17.871Z,2.20
2023-06-16T04:13:44.610Z,2.40
2023-06-16T04:16:11.667Z,2.38
2023-06-16T04:18:38.392Z,2.13
2023-06-16T04:21:05.034Z,2.22
2023-06-16T04:23:31.712Z,2.28
2023-06-16T04:25:59.360Z,1.83
2023-06-16T04:28:26.384Z,2.08
2023-06-16T04:30:53.181Z,2.30
2023-06-16T04:33:24.446Z,2.10
2023-06-16T04:35:52.630Z,2.38
2023-06-16T04:38:19.545Z,2.40
2023-06-16T04:40:46.178Z,2.20
2023-06-16T04:43:12.947Z,2.00
2023-06-16T04:45:39.566Z,2.50
2023-06-16T04:48:06.353Z,2.13
2023-06-16T04:50:33.079Z,2.25
2023-06-16T04:52:59.686Z,2.08
2023-06-16T04:55:27.436Z,2.40
2023-06-16T04:57:54.123Z,2.35
2023-06-16T05:00:21.209Z,2.15
2023-06-16T05:02:48.162Z,1.80
2023-06-16T05:05:15.018Z,2.30
2023-06-16T05:07:41.702Z,2.28
2023-06-16T05:10:09.056Z,2.47
2023-06-16T05:12:35.778Z,2.10
2023-06-16T05:15:02.637Z,2.13
2023-06-16T05:17:29.603Z,2.33
2023-06-16T05:19:56.408Z,2.10
2023-06-16T05:22:25.311Z,2.38
2023-06-16T05:24:53.280Z,2.72
2023-06-16T05:27:19.899Z,2.45
2023-06-16T05:29:46.519Z,2.50
2023-06-16T05:32:13.160Z,2.20
2023-06-16T05:34:39.738Z,2.05
2023-06-16T05:37:06.507Z,2.20
2023-06-16T05:39:33.098Z,2.20
2023-06-16T05:41:59.675Z,2.10
2023-06-16T05:44:26.310Z,2.20
2023-06-16T05:46:52.993Z,2.15
2023-06-16T05:49:19.592Z,1.92
2023-06-16T05:51:46.398Z,2.22
2023-06-16T05:54:13.092Z,2.28
2023-06-16T05:56:39.716Z,2.55
2023-06-16T05:59:06.646Z,2.00
2023-06-16T06:01:33.273Z,2.00
2023-06-16T06:03:59.965Z,1.83
2023-06-16T06:06:26.953Z,2.05
2023-06-16T06:08:53.510Z,1.92
2023-06-16T06:11:20.198Z,1.98
2023-06-16T06:13:46.873Z,2.10
2023-06-16T06:16:13.597Z,1.92
2023-06-16T06:18:40.341Z,2.33
2023-06-16T06:21:07.017Z,2.13
2023-06-16T06:23:33.643Z,1.90
2023-06-16T06:26:00.359Z,2.17
2023-06-16T06:28:27.085Z,1.92
2023-06-16T06:30:53.984Z,1.80
2023-06-16T06:33:20.694Z,1.95
2023-06-16T06:35:47.390Z,2.30
2023-06-16T06:38:14.334Z,2.00
2023-06-16T06:40:40.972Z,2.03
2023-06-16T06:43:07.613Z,2.00
2023-06-16T06:45:34.334Z,2.25
2023-06-16T06:48:01.114Z,2.08
2023-06-16T06:50:27.719Z,2.00
2023-06-16T06:52:54.474Z,2.17
2023-06-16T06:55:21.418Z,2.10
2023-06-16T06:57:50.823Z,1.75
2023-06-16T07:00:18.113Z,2.00
2023-06-16T07:02:45.398Z,2.10
2023-06-16T07:05:12.734Z,2.10
2023-06-16T07:07:39.521Z,2.08
2023-06-16T07:10:06.843Z,1.90
2023-06-16T07:12:33.515Z,2.13
2023-06-16T07:15:00.338Z,2.20
2023-06-16T07:17:27.143Z,2.10
2023-06-16T07:19:53.855Z,2.30
2023-06-16T07:22:21.428Z,1.98
2023-06-16T07:24:48.133Z,2.05
2023-06-16T07:27:14.779Z,2.40
2023-06-16T07:29:41.917Z,2.05
2023-06-16T07:32:09.099Z,2.22
2023-06-16T07:34:37.583Z,2.13
2023-06-16T07:37:05.028Z,2.03
2023-06-16T07:39:31.799Z,1.98
2023-06-16T07:41:58.463Z,2.40
2023-06-16T07:44:25.117Z,2.00
2023-06-16T07:46:51.999Z,2.30
2023-06-16T07:49:18.839Z,2.30
2023-06-16T07:51:45.518Z,2.17
2023-06-16T07:54:12.396Z,2.40
2023-06-16T07:56:40.276Z,2.08
2023-06-16T07:59:07.727Z,2.75
2023-06-16T08:01:34.547Z,2.40
2023-06-16T08:04:01.448Z,2.13
2023-06-16T08:06:28.518Z,2.05
2023-06-16T08:08:55.356Z,2.10
2023-06-16T08:11:22.385Z,2.17
2023-06-16T08:13:49.062Z,2.35
2023-06-16T08:16:15.728Z,2.08
2023-06-16T08:18:42.355Z,2.50
2023-06-16T08:21:09.529Z,2.13
2023-06-16T08:23:36.259Z,1.95
2023-06-16T08:26:03.002Z,2.47
2023-06-16T08:28:30.656Z,2.10
2023-06-16T08:30:57.298Z,2.25
2023-06-16T08:33:24.114Z,2.45
2023-06-16T08:35:51.953Z,2.20
2023-06-16T08:38:18.791Z,2.33
2023-06-16T08:40:45.582Z,2.80
2023-06-16T08:43:13.177Z,2.38
2023-06-16T08:45:40.657Z,2.83
2023-06-16T08:48:07.517Z,2.42
2023-06-16T08:50:34.225Z,2.50
2023-06-16T08:53:01.858Z,2.72
2023-06-16T08:55:31.288Z,2.13
2023-06-16T08:57:59.619Z,2.67
2023-06-16T09:00:27.120Z,2.40
2023-06-16T09:02:58.024Z,2.45
2023-06-16T09:05:25.851Z,2.10
2023-06-16T09:07:52.534Z,2.22
2023-06-16T09:10:20.418Z,2.50
2023-06-16T09:12:51.899Z,2.35
2023-06-16T09:15:18.870Z,2.58
2023-06-16T09:17:47.274Z,2.70
2023-06-16T09:20:18.292Z,2.50
2023-06-16T09:22:49.690Z,2.83
2023-06-16T09:25:17.653Z,2.58
2023-06-16T09:27:48.181Z,2.72
2023-06-16T09:30:16.611Z,2.70
2023-06-16T09:32:43.840Z,2.90
2023-06-16T09:35:27.021Z,2.80
2023-06-16T09:37:54.534Z,2.42
2023-06-16T09:40:22.176Z,3.00
2023-06-16T09:42:51.489Z,2.60
2023-06-16T09:45:18.556Z,2.72
2023-06-16T09:47:48.927Z,2.60
2023-06-16T09:50:17.576Z,2.78
2023-06-16T09:52:45.336Z,2.55
2023-06-16T09:55:15.895Z,2.40
2023-06-16T09:57:46.538Z,2.47
2023-06-16T10:00:17.920Z,2.65
2023-06-16T10:02:46.094Z,2.55
2023-06-16T10:05:20.033Z,3.38
2023-06-16T10:07:48.733Z,2.83
2023-06-16T10:10:16.629Z,2.25
2023-06-16T10:12:47.066Z,2.38
2023-06-16T10:15:17.362Z,2.33
2023-06-16T10:17:45.328Z,2.83
2023-06-16T10:20:14.497Z,2.53
2023-06-16T10:22:41.914Z,2.60
2023-06-16T10:25:09.025Z,2.72
2023-06-16T10:27:36.437Z,2.92
2023-06-16T10:30:03.854Z,2.80
2023-06-16T10:32:31.499Z,2.38
2023-06-16T10:34:59.174Z,2.38
2023-06-16T10:37:27.336Z,2.33
2023-06-16T10:39:57.857Z,2.78
2023-06-16T10:42:24.804Z,2.60
2023-06-16T10:44:51.857Z,2.22
2023-06-16T10:47:18.694Z,2.65
2023-06-16T10:50:01.721Z,2.65
2023-06-16T10:52:36.477Z,2.70
2023-06-16T10:55:21.898Z,2.67
2023-06-16T10:57:57.676Z,2.85
2023-06-16T11:00:28.770Z,2.63
2023-06-16T11:02:58.947Z,3.20
2023-06-16T11:05:36.876Z,2.92
2023-06-16T11:08:07.053Z,3.33
2023-06-16T11:10:50.218Z,2.67
2023-06-16T11:13:18.315Z,2.90
2023-06-16T11:15:45.310Z,2.83
2023-06-16T11:18:13.766Z,3.20
2023-06-16T11:20:41.436Z,3.22
2023-06-16T11:23:08.556Z,3.50
2023-06-16T11:25:36.233Z,3.30
2023-06-16T11:28:02.940Z,3.05
2023-06-16T11:30:30.815Z,3.42
2023-06-16T11:32:58.837Z,3.15
2023-06-16T11:35:32.313Z,3.78
2023-06-16T11:38:00.189Z,3.13
2023-06-16T11:40:31.694Z,2.90
2023-06-16T11:43:03.032Z,2.80
2023-06-16T11:45:30.891Z,2.85
2023-06-16T11:47:59.035Z,2.60
2023-06-16T11:50:25.897Z,2.97
2023-06-16T11:52:53.184Z,3.20
2023-06-16T11:55:20.573Z,3.10
2023-06-16T11:57:47.368Z,2.97
2023-06-16T12:00:14.777Z,3.35
2023-06-16T12:02:42.270Z,3.25
2023-06-16T12:05:12.015Z,3.47
2023-06-16T12:07:38.917Z,3.30
2023-06-16T12:10:05.797Z,3.50
2023-06-16T12:12:32.678Z,3.33
2023-06-16T12:15:00.758Z,3.38
2023-06-16T12:17:27.547Z,3.20
2023-06-16T12:19:54.680Z,2.92
2023-06-16T12:22:22.412Z,3.60
2023-06-16T12:24:49.681Z,3.28
2023-06-16T12:27:25.571Z,3.55
2023-06-16T12:29:59.187Z,3.40
2023-06-16T12:32:29.641Z,3.33
2023-06-16T12:34:56.378Z,3.30
2023-06-16T12:37:25.832Z,3.97
2023-06-16T12:39:59.075Z,3.00
2023-06-16T12:42:27.258Z,2.97
2023-06-16T12:44:54.520Z,3.03
2023-06-16T12:47:22.206Z,3.28
2023-06-16T12:49:49.121Z,3.40
2023-06-16T12:52:16.537Z,3.22
2023-06-16T12:54:44.163Z,3.00
2023-06-16T12:57:13.079Z,3.80
2023-06-16T12:59:40.858Z,3.30
2023-06-16T13:02:07.860Z,3.70
2023-06-16T13:04:34.608Z,3.28
2023-06-16T13:07:01.323Z,3.15
2023-06-16T13:09:28.299Z,3.45
2023-06-16T13:11:56.015Z,3.25
2023-06-16T13:14:23.439Z,3.00
2023-06-16T13:16:50.368Z,3.50
2023-06-16T13:19:17.426Z,2.97
2023-06-16T13:21:44.497Z,2.97
2023-06-16T13:24:11.632Z,3.60
2023-06-16T13:26:39.576Z,3.55
2023-06-16T13:29:06.617Z,3.30
2023-06-16T13:31:33.375Z,3.58
2023-06-16T13:34:00.167Z,3.42
2023-06-16T13:36:26.836Z,3.40
2023-06-16T13:38:54.215Z,3.30
2023-06-16T13:41:22.027Z,3.33
2023-06-16T13:43:49.535Z,3.15
2023-06-16T13:46:17.060Z,3.65
2023-06-16T13:48:44.095Z,3.88
2023-06-16T13:51:10.736Z,3.65
2023-06-16T13:53:37.678Z,3.30
2023-06-16T13:56:04.516Z,3.42
2023-06-16T13:58:31.276Z,2.83
2023-06-16T14:00:57.893Z,3.70
2023-06-16T14:03:27.442Z,3.40
2023-06-16T14:05:57.395Z,3.72
2023-06-16T14:08:24.678Z,3.47
2023-06-16T14:10:52.665Z,3.63
2023-06-16T14:13:25.038Z,3.53
2023-06-16T14:15:52.076Z,3.33
2023-06-16T14:18:19.218Z,3.78
2023-06-16T14:20:46.559Z,3.95
2023-06-16T14:23:16.828Z,3.38
2023-06-16T14:25:46.506Z,3.90
2023-06-16T14:28:14.262Z,3.90
2023-06-16T14:30:41.701Z,3.42
2023-06-16T14:33:10.791Z,3.70
2023-06-16T14:35:38.181Z,3.63
2023-06-16T14:38:04.951Z,3.67
2023-06-16T14:40:32.443Z,3.50
2023-06-16T14:42:59.175Z,3.40
2023-06-16T14:45:25.988Z,3.55
2023-06-16T14:47:52.931Z,3.80
2023-06-16T14:50:20.484Z,4.10
2023-06-16T14:52:47.566Z,3.50
2023-06-16T14:55:14.274Z,3.65
2023-06-16T14:57:41.154Z,4.10
2023-06-16T15:00:08.136Z,4.10
2023-06-16T15:02:35.050Z,4.00
2023-06-16T15:05:01.767Z,3.47
2023-06-16T15:07:28.532Z,3.67
2023-06-16T15:09:55.329Z,3.92
2023-06-16T15:12:22.300Z,3.90
2023-06-16T15:14:49.094Z,3.72
2023-06-16T15:17:15.761Z,4.47
2023-06-16T15:19:43.151Z,4.25
2023-06-16T15:22:10.309Z,3.83
2023-06-16T15:24:37.437Z,3.70
2023-06-16T15:27:04.420Z,3.45
2023-06-16T15:29:31.172Z,3.55
2023-06-16T15:31:58.030Z,3.85
2023-06-16T15:34:25.194Z,4.07
2023-06-16T15:36:52.219Z,4.07
2023-06-16T15:39:20.024Z,3.85
2023-06-16T15:41:47.014Z,3.55
2023-06-16T15:44:13.854Z,3.75
2023-06-16T15:46:40.754Z,3.90
2023-06-16T15:49:07.732Z,4.00
2023-06-16T15:51:34.387Z,3.75
2023-06-16T15:54:01.202Z,4.10
2023-06-16T15:56:27.908Z,3.70
2023-06-16T15:58:54.571Z,4.03
2023-06-16T16:01:21.422Z,3.50
2023-06-16T16:03:48.394Z,3.92
2023-06-16T16:06:15.293Z,3.95
2023-06-16T16:08:42.294Z,4.05
2023-06-16T16:11:09.483Z,3.83
2023-06-16T16:13:36.745Z,3.92
2023-06-16T16:16:03.557Z,3.92
2023-06-16T16:18:30.769Z,3.95
2023-06-16T16:20:57.640Z,3.78
2023-06-16T16:23:24.643Z,3.90
2023-06-16T16:25:51.422Z,4.40
2023-06-16T16:28:21.117Z,4.20
2023-06-16T16:30:48.173Z,3.88
2023-06-16T16:33:15.057Z,4.50
2023-06-16T16:35:42.196Z,3.75
2023-06-16T16:38:08.780Z,4.45
2023-06-16T16:40:35.524Z,3.80
2023-06-16T16:43:02.492Z,4.05
2023-06-16T16:45:29.291Z,4.13
2023-06-16T16:47:56.029Z,3.88
2023-06-16T16:50:22.766Z,3.30
2023-06-16T16:52:50.082Z,4.22
2023-06-16T16:57:49.677Z,3.50
2023-06-16T17:00:16.752Z,3.58
2023-06-16T17:02:43.580Z,3.65
2023-06-16T17:05:10.457Z,3.67
2023-06-16T17:07:37.096Z,3.45
2023-06-16T17:10:03.853Z,3.38
2023-06-16T17:12:30.750Z,4.20
2023-06-16T17:14:57.515Z,3.45
2023-06-16T17:17:24.146Z,3.58
2023-06-16T17:19:50.835Z,3.63
2023-06-16T17:22:17.497Z,3.72
2023-06-16T17:24:44.137Z,3.50
2023-06-16T17:27:11.042Z,3.60
2023-06-16T17:29:37.732Z,4.03
2023-06-16T17:32:04.606Z,2.40
2023-06-16T17:34:31.215Z,3.28
2023-06-16T17:36:59.755Z,2.75
2023-06-16T17:39:26.599Z,3.22
2023-06-16T17:41:55.481Z,3.38
2023-06-16T17:44:23.900Z,3.40
2023-06-16T17:46:50.766Z,3.47
2023-06-16T17:49:20.304Z,3.28
2023-06-16T17:51:47.771Z,3.10
2023-06-16T17:54:14.519Z,3.65
2023-06-16T17:56:41.227Z,3.22
2023-06-16T17:59:07.913Z,3.35
2023-06-16T18:01:35.064Z,3.22
2023-06-16T18:04:01.925Z,3.13
2023-06-16T18:06:28.517Z,3.30
2023-06-16T18:08:55.447Z,3.25
2023-06-16T18:11:22.022Z,3.40
2023-06-16T18:13:48.602Z,3.35
2023-06-16T18:16:15.284Z,3.35
2023-06-16T18:18:42.252Z,3.45
2023-06-16T18:21:08.834Z,3.55
2023-06-16T18:23:35.547Z,3.03
2023-06-16T18:26:02.206Z,4.03
2023-06-16T18:28:28.755Z,3.47
2023-06-16T18:30:55.310Z,2.88
2023-06-16T18:33:22.372Z,2.92
2023-06-16T18:35:49.583Z,3.53
2023-06-16T18:38:16.107Z,2.80
2023-06-16T18:40:42.698Z,3.42
2023-06-16T18:43:09.311Z,2.95
2023-06-16T18:45:35.978Z,2.78
2023-06-16T18:48:02.497Z,3.40
2023-06-16T18:50:29.096Z,5.22
2023-06-16T18:52:55.775Z,4.30
2023-06-16T18:55:22.692Z,5.30
2023-06-16T18:57:49.239Z,4.72
2023-06-16T19:00:15.840Z,4.35
2023-06-16T19:02:42.461Z,5.20
2023-06-16T19:05:12.066Z,5.15
2023-06-16T19:07:38.772Z,4.00
2023-06-16T19:10:05.823Z,3.75
2023-06-16T19:12:32.921Z,4.20
2023-06-16T19:14:59.557Z,3.33
2023-06-16T19:17:26.453Z,2.90
2023-06-16T19:19:53.137Z,3.60
2023-06-16T19:22:19.716Z,3.33
2023-06-16T19:24:46.328Z,3.28
2023-06-16T19:27:13.067Z,3.40
2023-06-16T19:29:39.650Z,3.83
2023-06-16T19:32:06.547Z,3.17
2023-06-16T19:34:34.826Z,3.47
2023-06-16T19:37:01.386Z,3.25
2023-06-16T19:39:28.015Z,3.55
2023-06-16T19:41:54.580Z,3.50
2023-06-16T19:44:21.110Z,3.00
2023-06-16T19:46:48.411Z,3.40
2023-06-16T19:49:15.078Z,3.22
2023-06-16T19:51:41.712Z,3.28
2023-06-16T19:54:10.077Z,3.30
2023-06-16T19:56:37.951Z,2.90
2023-06-16T19:59:04.774Z,3.28
2023-06-16T20:01:31.712Z,3.30
2023-06-16T20:03:58.367Z,3.35
2023-06-16T20:06:24.879Z,3.00
2023-06-16T20:08:51.448Z,2.83
2023-06-16T20:11:18.044Z,2.88
2023-06-16T20:13:46.995Z,3.75
2023-06-16T20:16:13.727Z,2.72
2023-06-16T20:18:40.413Z,1.80
2023-06-16T20:21:08.336Z,3.50
2023-06-16T20:23:34.934Z,2.83
2023-06-16T20:26:01.641Z,2.97
2023-06-16T20:28:28.306Z,3.03
2023-06-16T20:30:54.895Z,2.72
2023-06-16T20:33:21.479Z,2.92
2023-06-16T20:35:48.111Z,2.95
2023-06-16T20:38:15.443Z,2.90
2023-06-16T20:40:42.653Z,2.78
2023-06-16T20:43:11.992Z,2.88
2023-06-16T20:45:38.915Z,2.97
2023-06-16T20:48:05.770Z,2.90
2023-06-16T20:50:33.776Z,2.72
2023-06-16T20:53:00.386Z,2.80
2023-06-16T20:55:27.126Z,2.80
2023-06-16T20:57:57.318Z,2.72
2023-06-16T21:00:24.693Z,2.60
2023-06-16T21:02:53.676Z,2.75
2023-06-16T21:05:20.421Z,2.88
2023-06-16T21:07:48.842Z,3.00
2023-06-16T21:10:16.385Z,3.20
2023-06-16T21:12:43.301Z,3.30
2023-06-16T21:15:12.104Z,3.28
2023-06-16T21:17:39.978Z,3.15
2023-06-16T21:20:09.642Z,4.05
2023-06-16T21:22:40.088Z,2.88
2023-06-16T21:25:06.920Z,4.72
2023-06-16T21:27:34.116Z,2.75
2023-06-16T21:30:00.880Z,3.17
2023-06-16T21:32:29.833Z,2.58
2023-06-16T21:34:57.042Z,2.80
2023-06-16T21:37:25.560Z,3.10
2023-06-16T21:40:18.745Z,3.15
2023-06-16T21:42:45.772Z,2.88
2023-06-16T21:45:14.288Z,2.42
2023-06-16T21:47:40.932Z,2.72
2023-06-16T21:50:07.990Z,2.53
2023-06-16T21:52:34.692Z,2.90
2023-06-16T21:55:02.212Z,2.88
2023-06-16T21:57:29.533Z,2.70
2023-06-16T21:59:56.277Z,2.67
2023-06-16T22:02:23.378Z,2.30
2023-06-16T22:04:50.061Z,2.47
2023-06-16T22:07:19.351Z,2.47
2023-06-16T22:09:46.774Z,2.50
2023-06-16T22:12:13.807Z,2.40
2023-06-16T22:14:40.870Z,2.25
2023-06-16T22:17:08.024Z,2.20
2023-06-16T22:19:36.526Z,2.35
2023-06-16T22:22:03.364Z,2.15
2023-06-16T22:24:30.324Z,2.45
2023-06-16T22:27:04.375Z,3.08
2023-06-16T22:29:34.897Z,2.10
2023-06-16T22:32:01.567Z,2.65
2023-06-16T22:34:28.251Z,2.40
2023-06-16T22:36:54.912Z,1.90
2023-06-16T22:39:21.602Z,2.20
2023-06-16T22:41:48.135Z,2.10
2023-06-16T22:44:14.681Z,2.17
2023-06-16T22:46:43.459Z,2.10
2023-06-16T22:49:10.976Z,2.33
2023-06-16T22:51:38.797Z,2.28
2023-06-16T22:54:06.150Z,2.10
2023-06-16T22:56:32.841Z,2.17
2023-06-16T22:58:59.466Z,2.20
2023-06-16T23:01:26.310Z,1.75
2023-06-16T23:03:53.100Z,2.03
2023-06-16T23:06:20.024Z,2.03
2023-06-16T23:08:46.614Z,2.55
2023-06-16T23:11:13.415Z,2.13
2023-06-16T23:13:39.938Z,2.00
2023-06-16T23:16:06.925Z,2.00
2023-06-16T23:18:33.634Z,2.20
2023-06-16T23:21:00.465Z,1.95
2023-06-16T23:23:27.043Z,2.00
2023-06-16T23:25:55.747Z,2.25
2023-06-16T23:28:28.189Z,1.88
2023-06-16T23:30:57.385Z,1.80
2023-06-16T23:33:28.958Z,2.10
2023-06-16T23:35:56.084Z,2.25
2023-06-16T23:38:24.538Z,2.25
2023-06-16T23:40:52.112Z,1.90
2023-06-16T23:43:23.283Z,2.20
2023-06-16T23:45:49.884Z,2.13
2023-06-16T23:48:16.530Z,2.28
2023-06-16T23:50:43.055Z,2.20
2023-06-16T23:53:09.645Z,2.15
2023-06-16T23:55:36.316Z,2.22
2023-06-16T23:58:03.135Z,2.20
